sensor_id;sensor_type;location;lat;lon;timestamp;temperature;humidity
24638;DHT22;12773;50.162;8.548;2022-12-07T00:00:54;5.50;99.90
24638;DHT22;12773;50.162;8.548;2022-12-07T00:03:43;5.50;99.90
24638;DHT22;12773;50.162;8.548;2022-12-07T00:06:33;5.40;99.90
24638;DHT22;12773;50.162;8.548;2022-12-07T00:09:24;5.30;99.90
24638;DHT22;12773;50.162;8.548;2022-12-07T00:12:12;5.20;99.90
24638;DHT22;12773;50.162;8.548;2022-12-07T00:14:59;5.30;99.90
24638;DHT22;12773;50.162;8.548;2022-12-07T00:17:46;5.40;99.90
24638;DHT22;12773;50.162;8.548;2022-12-07T00:20:33;5.50;99.90
24638;DHT22;12773;50.162;8.548;2022-12-07T00:23:22;5.50;99.90
24638;DHT22;12773;50.162;8.548;2022-12-07T00:29:07;5.60;99.90
24638;DHT22;12773;50.162;8.548;2022-12-07T00:31:50;5.60;99.90
24638;DHT22;12773;50.162;8.548;2022-12-07T00:34:39;5.40;99.90
24638;DHT22;12773;50.162;8.548;2022-12-07T00:37:26;5.50;99.90
24638;DHT22;12773;50.162;8.548;2022-12-07T00:40:13;5.40;99.90
24638;DHT22;12773;50.162;8.548;2022-12-07T00:43:00;5.50;99.90
24638;DHT22;12773;50.162;8.548;2022-12-07T00:45:48;5.40;99.90
24638;DHT22;12773;50.162;8.548;2022-12-07T00:48:36;5.40;99.90
24638;DHT22;12773;50.162;8.548;2022-12-07T00:51:24;5.40;99.90
24638;DHT22;12773;50.162;8.548;2022-12-07T00:54:12;5.40;99.90
24638;DHT22;12773;50.162;8.548;2022-12-07T00:56:59;5.30;99.90
24638;DHT22;12773;50.162;8.548;2022-12-07T00:59:46;5.20;99.90
24638;DHT22;12773;50.162;8.548;2022-12-07T01:02:33;5.10;99.90
24638;DHT22;12773;50.162;8.548;2022-12-07T01:05:26;5.20;99.90
24638;DHT22;12773;50.162;8.548;2022-12-07T01:08:10;5.10;99.90
24638;DHT22;12773;50.162;8.548;2022-12-07T01:11:03;5.20;99.90
24638;DHT22;12773;50.162;8.548;2022-12-07T01:13:52;5.10;99.90
24638;DHT22;12773;50.162;8.548;2022-12-07T01:16:40;5.10;99.90
24638;DHT22;12773;50.162;8.548;2022-12-07T01:19:27;5.00;99.90
24638;DHT22;12773;50.162;8.548;2022-12-07T01:22:16;5.00;99.90
24638;DHT22;12773;50.162;8.548;2022-12-07T01:25:04;4.90;99.90
24638;DHT22;12773;50.162;8.548;2022-12-07T01:27:55;5.00;99.90
24638;DHT22;12773;50.162;8.548;2022-12-07T01:30:42;5.00;99.90
24638;DHT22;12773;50.162;8.548;2022-12-07T01:33:32;4.90;99.90
24638;DHT22;12773;50.162;8.548;2022-12-07T01:36:25;4.90;99.90
24638;DHT22;12773;50.162;8.548;2022-12-07T01:39:12;4.90;99.90
24638;DHT22;12773;50.162;8.548;2022-12-07T01:42:00;4.90;99.90
24638;DHT22;12773;50.162;8.548;2022-12-07T01:48:11;5.00;99.90
24638;DHT22;12773;50.162;8.548;2022-12-07T01:51:02;5.00;99.90
24638;DHT22;12773;50.162;8.548;2022-12-07T01:53:50;5.10;99.90
24638;DHT22;12773;50.162;8.548;2022-12-07T01:56:41;5.20;99.90
24638;DHT22;12773;50.162;8.548;2022-12-07T01:59:30;5.20;99.90
24638;DHT22;12773;50.162;8.548;2022-12-07T02:02:29;5.20;99.90
24638;DHT22;12773;50.162;8.548;2022-12-07T02:05:19;5.20;99.90
24638;DHT22;12773;50.162;8.548;2022-12-07T02:08:07;5.30;99.90
24638;DHT22;12773;50.162;8.548;2022-12-07T02:10:56;5.40;99.90
24638;DHT22;12773;50.162;8.548;2022-12-07T02:13:44;5.40;99.90
24638;DHT22;12773;50.162;8.548;2022-12-07T02:16:53;5.30;99.90
24638;DHT22;12773;50.162;8.548;2022-12-07T02:19:59;5.40;99.90
24638;DHT22;12773;50.162;8.548;2022-12-07T02:23:04;5.30;99.90
24638;DHT22;12773;50.162;8.548;2022-12-07T02:29:25;5.40;99.90
24638;DHT22;12773;50.162;8.548;2022-12-07T02:32:39;5.40;99.90
24638;DHT22;12773;50.162;8.548;2022-12-07T02:35:28;5.40;99.90
24638;DHT22;12773;50.162;8.548;2022-12-07T02:38:26;5.30;99.90
24638;DHT22;12773;50.162;8.548;2022-12-07T02:41:15;5.40;99.90
24638;DHT22;12773;50.162;8.548;2022-12-07T02:44:04;5.30;99.90
24638;DHT22;12773;50.162;8.548;2022-12-07T02:47:04;5.20;99.90
24638;DHT22;12773;50.162;8.548;2022-12-07T02:49:52;5.30;99.90
24638;DHT22;12773;50.162;8.548;2022-12-07T02:52:40;5.30;99.90
24638;DHT22;12773;50.162;8.548;2022-12-07T02:55:31;5.40;99.90
24638;DHT22;12773;50.162;8.548;2022-12-07T02:58:38;5.30;99.90
24638;DHT22;12773;50.162;8.548;2022-12-07T03:01:51;5.40;99.90
24638;DHT22;12773;50.162;8.548;2022-12-07T03:05:05;5.40;99.90
24638;DHT22;12773;50.162;8.548;2022-12-07T03:08:02;5.40;99.90
24638;DHT22;12773;50.162;8.548;2022-12-07T03:11:08;5.40;99.90
24638;DHT22;12773;50.162;8.548;2022-12-07T03:14:13;5.50;99.90
24638;DHT22;12773;50.162;8.548;2022-12-07T03:17:17;5.60;99.90
24638;DHT22;12773;50.162;8.548;2022-12-07T03:20:19;5.60;99.90
24638;DHT22;12773;50.162;8.548;2022-12-07T03:23:10;5.60;99.90
24638;DHT22;12773;50.162;8.548;2022-12-07T03:26:00;5.60;99.90
24638;DHT22;12773;50.162;8.548;2022-12-07T03:28:51;5.60;99.90
24638;DHT22;12773;50.162;8.548;2022-12-07T03:31:47;5.60;99.90
24638;DHT22;12773;50.162;8.548;2022-12-07T03:34:34;5.70;99.90
24638;DHT22;12773;50.162;8.548;2022-12-07T03:43:19;5.60;99.90
24638;DHT22;12773;50.162;8.548;2022-12-07T03:52:12;5.60;99.90
24638;DHT22;12773;50.162;8.548;2022-12-07T03:55:24;5.70;99.90
24638;DHT22;12773;50.162;8.548;2022-12-07T03:58:14;5.70;99.90
24638;DHT22;12773;50.162;8.548;2022-12-07T04:01:01;5.60;99.90
24638;DHT22;12773;50.162;8.548;2022-12-07T04:03:49;5.60;99.90
24638;DHT22;12773;50.162;8.548;2022-12-07T04:06:37;5.60;99.90
24638;DHT22;12773;50.162;8.548;2022-12-07T04:09:25;5.70;99.90
24638;DHT22;12773;50.162;8.548;2022-12-07T04:12:12;5.70;99.90
24638;DHT22;12773;50.162;8.548;2022-12-07T04:14:59;5.70;99.90
24638;DHT22;12773;50.162;8.548;2022-12-07T04:17:47;5.80;99.90
24638;DHT22;12773;50.162;8.548;2022-12-07T04:20:34;5.90;99.90
24638;DHT22;12773;50.162;8.548;2022-12-07T04:23:23;6.00;99.90
24638;DHT22;12773;50.162;8.548;2022-12-07T04:26:10;6.20;99.90
24638;DHT22;12773;50.162;8.548;2022-12-07T04:28:58;6.30;99.90
24638;DHT22;12773;50.162;8.548;2022-12-07T04:31:47;6.20;99.90
24638;DHT22;12773;50.162;8.548;2022-12-07T04:34:34;6.30;99.90
24638;DHT22;12773;50.162;8.548;2022-12-07T04:37:25;6.40;99.90
24638;DHT22;12773;50.162;8.548;2022-12-07T04:40:13;6.40;99.90
24638;DHT22;12773;50.162;8.548;2022-12-07T04:43:00;6.40;99.90
24638;DHT22;12773;50.162;8.548;2022-12-07T04:45:48;6.40;99.90
24638;DHT22;12773;50.162;8.548;2022-12-07T04:48:38;6.50;99.90
24638;DHT22;12773;50.162;8.548;2022-12-07T04:51:28;6.50;99.90
24638;DHT22;12773;50.162;8.548;2022-12-07T04:54:16;6.50;99.90
24638;DHT22;12773;50.162;8.548;2022-12-07T04:57:04;6.40;99.90
24638;DHT22;12773;50.162;8.548;2022-12-07T04:59:53;6.50;99.90
24638;DHT22;12773;50.162;8.548;2022-12-07T05:02:40;6.40;99.90
24638;DHT22;12773;50.162;8.548;2022-12-07T05:05:27;6.50;99.90
24638;DHT22;12773;50.162;8.548;2022-12-07T05:08:15;6.50;99.90
24638;DHT22;12773;50.162;8.548;2022-12-07T05:11:03;6.60;99.90
24638;DHT22;12773;50.162;8.548;2022-12-07T05:13:50;6.70;99.90
24638;DHT22;12773;50.162;8.548;2022-12-07T05:16:42;6.80;99.90
24638;DHT22;12773;50.162;8.548;2022-12-07T05:19:30;6.80;99.90
24638;DHT22;12773;50.162;8.548;2022-12-07T05:22:17;6.80;99.90
24638;DHT22;12773;50.162;8.548;2022-12-07T05:25:05;6.70;99.90
24638;DHT22;12773;50.162;8.548;2022-12-07T05:27:54;6.80;99.90
24638;DHT22;12773;50.162;8.548;2022-12-07T05:30:41;7.00;99.90
24638;DHT22;12773;50.162;8.548;2022-12-07T05:33:28;7.10;99.90
24638;DHT22;12773;50.162;8.548;2022-12-07T05:36:16;7.10;99.90
24638;DHT22;12773;50.162;8.548;2022-12-07T05:39:04;7.10;99.90
24638;DHT22;12773;50.162;8.548;2022-12-07T05:41:54;7.10;99.90
24638;DHT22;12773;50.162;8.548;2022-12-07T05:44:59;7.20;99.90
24638;DHT22;12773;50.162;8.548;2022-12-07T05:47:47;7.20;99.90
24638;DHT22;12773;50.162;8.548;2022-12-07T05:50:35;7.20;99.90
24638;DHT22;12773;50.162;8.548;2022-12-07T05:53:28;7.20;99.90
24638;DHT22;12773;50.162;8.548;2022-12-07T05:56:12;7.10;99.90
24638;DHT22;12773;50.162;8.548;2022-12-07T05:58:59;6.90;99.90
24638;DHT22;12773;50.162;8.548;2022-12-07T06:02:12;7.00;99.90
24638;DHT22;12773;50.162;8.548;2022-12-07T06:04:55;7.10;99.90
24638;DHT22;12773;50.162;8.548;2022-12-07T06:07:42;7.20;99.90
24638;DHT22;12773;50.162;8.548;2022-12-07T06:10:29;7.20;99.90
24638;DHT22;12773;50.162;8.548;2022-12-07T06:13:17;7.30;99.90
24638;DHT22;12773;50.162;8.548;2022-12-07T06:16:06;7.40;99.90
24638;DHT22;12773;50.162;8.548;2022-12-07T06:18:54;7.30;99.90
24638;DHT22;12773;50.162;8.548;2022-12-07T06:21:41;7.40;99.90
24638;DHT22;12773;50.162;8.548;2022-12-07T06:24:29;7.40;99.90
24638;DHT22;12773;50.162;8.548;2022-12-07T06:27:16;7.40;99.90
24638;DHT22;12773;50.162;8.548;2022-12-07T06:30:04;7.30;99.90
24638;DHT22;12773;50.162;8.548;2022-12-07T06:32:53;7.20;99.90
24638;DHT22;12773;50.162;8.548;2022-12-07T06:35:40;6.90;99.90
24638;DHT22;12773;50.162;8.548;2022-12-07T06:38:28;6.70;99.90
24638;DHT22;12773;50.162;8.548;2022-12-07T06:41:16;6.60;99.90
24638;DHT22;12773;50.162;8.548;2022-12-07T06:44:09;6.40;99.90
24638;DHT22;12773;50.162;8.548;2022-12-07T06:46:52;6.40;99.90
24638;DHT22;12773;50.162;8.548;2022-12-07T06:49:41;6.40;99.90
24638;DHT22;12773;50.162;8.548;2022-12-07T06:52:30;6.50;99.90
24638;DHT22;12773;50.162;8.548;2022-12-07T06:55:19;6.60;99.90
24638;DHT22;12773;50.162;8.548;2022-12-07T06:58:08;6.70;99.90
24638;DHT22;12773;50.162;8.548;2022-12-07T07:00:55;6.60;99.90
24638;DHT22;12773;50.162;8.548;2022-12-07T07:03:43;6.60;99.90
24638;DHT22;12773;50.162;8.548;2022-12-07T07:06:31;6.70;99.90
24638;DHT22;12773;50.162;8.548;2022-12-07T07:09:18;6.70;99.90
24638;DHT22;12773;50.162;8.548;2022-12-07T07:12:06;6.70;99.90
24638;DHT22;12773;50.162;8.548;2022-12-07T07:14:53;6.70;99.90
24638;DHT22;12773;50.162;8.548;2022-12-07T07:17:41;6.70;99.90
24638;DHT22;12773;50.162;8.548;2022-12-07T07:20:29;6.60;99.90
24638;DHT22;12773;50.162;8.548;2022-12-07T07:23:17;6.70;99.90
24638;DHT22;12773;50.162;8.548;2022-12-07T07:26:04;6.80;99.90
24638;DHT22;12773;50.162;8.548;2022-12-07T07:28:57;6.70;99.90
24638;DHT22;12773;50.162;8.548;2022-12-07T07:31:41;6.70;99.90
24638;DHT22;12773;50.162;8.548;2022-12-07T07:34:28;6.60;99.90
24638;DHT22;12773;50.162;8.548;2022-12-07T07:37:16;6.40;99.90
24638;DHT22;12773;50.162;8.548;2022-12-07T07:40:05;6.30;99.90
24638;DHT22;12773;50.162;8.548;2022-12-07T07:42:53;6.20;99.90
24638;DHT22;12773;50.162;8.548;2022-12-07T07:45:41;6.20;99.90
24638;DHT22;12773;50.162;8.548;2022-12-07T07:48:28;6.10;99.90
24638;DHT22;12773;50.162;8.548;2022-12-07T07:51:16;6.10;99.90
24638;DHT22;12773;50.162;8.548;2022-12-07T07:54:03;6.30;99.90
24638;DHT22;12773;50.162;8.548;2022-12-07T07:56:52;6.30;99.90
24638;DHT22;12773;50.162;8.548;2022-12-07T07:59:40;6.20;99.90
24638;DHT22;12773;50.162;8.548;2022-12-07T08:02:29;6.30;99.90
24638;DHT22;12773;50.162;8.548;2022-12-07T08:05:17;6.20;99.90
24638;DHT22;12773;50.162;8.548;2022-12-07T08:08:04;6.10;99.90
24638;DHT22;12773;50.162;8.548;2022-12-07T08:10:52;6.20;99.90
24638;DHT22;12773;50.162;8.548;2022-12-07T08:13:40;6.30;99.90
24638;DHT22;12773;50.162;8.548;2022-12-07T08:16:27;6.40;99.90
24638;DHT22;12773;50.162;8.548;2022-12-07T08:19:15;6.60;99.90
24638;DHT22;12773;50.162;8.548;2022-12-07T08:22:02;6.70;99.90
24638;DHT22;12773;50.162;8.548;2022-12-07T08:24:50;6.70;99.90
24638;DHT22;12773;50.162;8.548;2022-12-07T08:27:37;6.90;99.90
24638;DHT22;12773;50.162;8.548;2022-12-07T08:30:24;6.90;99.90
24638;DHT22;12773;50.162;8.548;2022-12-07T08:33:12;6.80;99.90
24638;DHT22;12773;50.162;8.548;2022-12-07T08:36:04;6.80;99.90
24638;DHT22;12773;50.162;8.548;2022-12-07T08:38:52;6.80;99.90
24638;DHT22;12773;50.162;8.548;2022-12-07T08:41:41;6.60;99.90
24638;DHT22;12773;50.162;8.548;2022-12-07T08:44:30;6.70;99.90
24638;DHT22;12773;50.162;8.548;2022-12-07T08:47:18;6.70;99.90
24638;DHT22;12773;50.162;8.548;2022-12-07T08:50:08;6.80;99.90
24638;DHT22;12773;50.162;8.548;2022-12-07T08:52:58;6.80;99.90
24638;DHT22;12773;50.162;8.548;2022-12-07T08:55:47;6.90;99.90
24638;DHT22;12773;50.162;8.548;2022-12-07T08:58:36;7.10;99.90
24638;DHT22;12773;50.162;8.548;2022-12-07T09:01:26;7.20;99.90
24638;DHT22;12773;50.162;8.548;2022-12-07T09:04:13;7.40;99.90
24638;DHT22;12773;50.162;8.548;2022-12-07T09:07:02;7.50;99.90
24638;DHT22;12773;50.162;8.548;2022-12-07T09:09:50;7.70;99.90
24638;DHT22;12773;50.162;8.548;2022-12-07T09:12:40;8.00;99.90
24638;DHT22;12773;50.162;8.548;2022-12-07T09:15:28;8.00;99.90
24638;DHT22;12773;50.162;8.548;2022-12-07T09:18:16;8.20;99.90
24638;DHT22;12773;50.162;8.548;2022-12-07T09:21:04;8.20;99.90
24638;DHT22;12773;50.162;8.548;2022-12-07T09:23:51;8.00;99.90
24638;DHT22;12773;50.162;8.548;2022-12-07T09:26:39;7.90;99.90
24638;DHT22;12773;50.162;8.548;2022-12-07T09:29:26;7.90;99.90
24638;DHT22;12773;50.162;8.548;2022-12-07T09:32:14;8.00;99.90
24638;DHT22;12773;50.162;8.548;2022-12-07T09:35:02;8.10;99.90
24638;DHT22;12773;50.162;8.548;2022-12-07T09:37:50;8.40;99.90
24638;DHT22;12773;50.162;8.548;2022-12-07T09:40:40;8.50;99.90
24638;DHT22;12773;50.162;8.548;2022-12-07T09:43:29;8.90;99.90
24638;DHT22;12773;50.162;8.548;2022-12-07T09:46:19;9.40;99.90
24638;DHT22;12773;50.162;8.548;2022-12-07T09:49:16;10.00;99.90
24638;DHT22;12773;50.162;8.548;2022-12-07T09:54:56;10.40;99.90
24638;DHT22;12773;50.162;8.548;2022-12-07T09:57:44;10.40;99.90
24638;DHT22;12773;50.162;8.548;2022-12-07T10:00:31;10.90;99.90
24638;DHT22;12773;50.162;8.548;2022-12-07T10:03:18;10.70;99.90
24638;DHT22;12773;50.162;8.548;2022-12-07T10:06:06;10.60;99.90
24638;DHT22;12773;50.162;8.548;2022-12-07T10:08:54;10.90;99.90
24638;DHT22;12773;50.162;8.548;2022-12-07T10:12:07;10.50;99.90
24638;DHT22;12773;50.162;8.548;2022-12-07T10:15:03;10.30;99.90
24638;DHT22;12773;50.162;8.548;2022-12-07T10:17:54;10.20;99.90
24638;DHT22;12773;50.162;8.548;2022-12-07T10:20:45;10.00;99.90
24638;DHT22;12773;50.162;8.548;2022-12-07T10:23:35;9.90;99.90
24638;DHT22;12773;50.162;8.548;2022-12-07T10:26:36;10.00;99.90
24638;DHT22;12773;50.162;8.548;2022-12-07T10:29:37;10.40;99.90
24638;DHT22;12773;50.162;8.548;2022-12-07T10:32:32;10.70;99.90
24638;DHT22;12773;50.162;8.548;2022-12-07T10:35:26;11.10;99.90
24638;DHT22;12773;50.162;8.548;2022-12-07T10:38:16;11.40;99.90
24638;DHT22;12773;50.162;8.548;2022-12-07T10:41:07;11.80;99.90
24638;DHT22;12773;50.162;8.548;2022-12-07T10:43:57;11.80;99.90
24638;DHT22;12773;50.162;8.548;2022-12-07T10:46:54;12.20;99.90
24638;DHT22;12773;50.162;8.548;2022-12-07T10:49:44;12.50;99.90
24638;DHT22;12773;50.162;8.548;2022-12-07T11:05:14;11.60;99.90
24638;DHT22;12773;50.162;8.548;2022-12-07T11:11:11;11.10;99.90
24638;DHT22;12773;50.162;8.548;2022-12-07T11:14:37;10.50;99.90
24638;DHT22;12773;50.162;8.548;2022-12-07T11:17:35;10.20;99.90
24638;DHT22;12773;50.162;8.548;2022-12-07T11:20:35;10.20;99.90
24638;DHT22;12773;50.162;8.548;2022-12-07T11:23:39;9.90;99.90
24638;DHT22;12773;50.162;8.548;2022-12-07T11:30:01;9.20;99.90
24638;DHT22;12773;50.162;8.548;2022-12-07T11:36:39;9.30;99.90
24638;DHT22;12773;50.162;8.548;2022-12-07T11:39:40;9.50;99.90
24638;DHT22;12773;50.162;8.548;2022-12-07T11:42:25;9.50;99.90
24638;DHT22;12773;50.162;8.548;2022-12-07T11:45:21;9.90;99.90
24638;DHT22;12773;50.162;8.548;2022-12-07T11:48:22;9.90;99.90
24638;DHT22;12773;50.162;8.548;2022-12-07T11:51:12;10.30;99.90
24638;DHT22;12773;50.162;8.548;2022-12-07T11:54:12;10.00;99.90
24638;DHT22;12773;50.162;8.548;2022-12-07T11:57:09;10.10;99.90
24638;DHT22;12773;50.162;8.548;2022-12-07T11:59:56;10.40;99.90
24638;DHT22;12773;50.162;8.548;2022-12-07T12:03:05;10.70;99.90
24638;DHT22;12773;50.162;8.548;2022-12-07T12:05:42;11.20;99.90
24638;DHT22;12773;50.162;8.548;2022-12-07T12:08:36;11.50;99.90
24638;DHT22;12773;50.162;8.548;2022-12-07T12:14:58;11.10;99.90
24638;DHT22;12773;50.162;8.548;2022-12-07T12:20:57;11.10;99.90
24638;DHT22;12773;50.162;8.548;2022-12-07T12:23:57;11.00;99.90
24638;DHT22;12773;50.162;8.548;2022-12-07T12:26:51;10.80;99.90
24638;DHT22;12773;50.162;8.548;2022-12-07T12:29:40;10.70;99.90
24638;DHT22;12773;50.162;8.548;2022-12-07T12:32:43;10.10;99.90
24638;DHT22;12773;50.162;8.548;2022-12-07T12:35:36;10.10;99.90
24638;DHT22;12773;50.162;8.548;2022-12-07T12:38:30;9.80;99.90
24638;DHT22;12773;50.162;8.548;2022-12-07T12:44:39;10.20;99.90
24638;DHT22;12773;50.162;8.548;2022-12-07T12:47:54;10.60;99.90
24638;DHT22;12773;50.162;8.548;2022-12-07T12:50:41;10.80;99.90
24638;DHT22;12773;50.162;8.548;2022-12-07T12:53:28;10.80;99.90
24638;DHT22;12773;50.162;8.548;2022-12-07T12:56:23;11.00;99.90
24638;DHT22;12773;50.162;8.548;2022-12-07T12:59:42;11.20;99.90
24638;DHT22;12773;50.162;8.548;2022-12-07T13:05:22;10.70;99.90
24638;DHT22;12773;50.162;8.548;2022-12-07T13:08:18;10.80;99.90
24638;DHT22;12773;50.162;8.548;2022-12-07T13:11:33;10.70;99.90
24638;DHT22;12773;50.162;8.548;2022-12-07T13:20:46;9.60;99.90
24638;DHT22;12773;50.162;8.548;2022-12-07T13:26:41;9.00;99.90
24638;DHT22;12773;50.162;8.548;2022-12-07T13:29:29;9.10;99.90
24638;DHT22;12773;50.162;8.548;2022-12-07T13:32:25;9.40;99.90
24638;DHT22;12773;50.162;8.548;2022-12-07T13:35:34;9.50;99.90
24638;DHT22;12773;50.162;8.548;2022-12-07T13:38:35;9.70;99.90
24638;DHT22;12773;50.162;8.548;2022-12-07T13:41:28;9.80;99.90
24638;DHT22;12773;50.162;8.548;2022-12-07T13:44:17;9.70;99.90
24638;DHT22;12773;50.162;8.548;2022-12-07T13:47:12;9.70;99.90
24638;DHT22;12773;50.162;8.548;2022-12-07T13:49:58;9.80;99.90
24638;DHT22;12773;50.162;8.548;2022-12-07T13:52:45;9.60;99.90
24638;DHT22;12773;50.162;8.548;2022-12-07T13:55:34;9.40;99.90
24638;DHT22;12773;50.162;8.548;2022-12-07T13:58:27;9.50;99.90
24638;DHT22;12773;50.162;8.548;2022-12-07T14:01:15;9.30;99.90
24638;DHT22;12773;50.162;8.548;2022-12-07T14:04:41;9.10;99.90
24638;DHT22;12773;50.162;8.548;2022-12-07T14:07:24;9.20;99.90
24638;DHT22;12773;50.162;8.548;2022-12-07T14:10:35;8.90;99.90
24638;DHT22;12773;50.162;8.548;2022-12-07T14:13:37;8.80;99.90
24638;DHT22;12773;50.162;8.548;2022-12-07T14:16:31;8.80;99.90
24638;DHT22;12773;50.162;8.548;2022-12-07T14:19:43;8.80;99.90
24638;DHT22;12773;50.162;8.548;2022-12-07T14:22:38;8.80;99.90
24638;DHT22;12773;50.162;8.548;2022-12-07T14:25:27;8.70;99.90
24638;DHT22;12773;50.162;8.548;2022-12-07T14:28:28;8.30;99.90
24638;DHT22;12773;50.162;8.548;2022-12-07T14:31:20;7.90;99.90
24638;DHT22;12773;50.162;8.548;2022-12-07T14:34:15;7.80;99.90
24638;DHT22;12773;50.162;8.548;2022-12-07T14:37:03;7.50;99.90
24638;DHT22;12773;50.162;8.548;2022-12-07T14:39:51;7.50;99.90
24638;DHT22;12773;50.162;8.548;2022-12-07T14:42:39;7.30;99.90
24638;DHT22;12773;50.162;8.548;2022-12-07T14:45:27;7.40;99.90
24638;DHT22;12773;50.162;8.548;2022-12-07T14:48:15;7.40;99.90
24638;DHT22;12773;50.162;8.548;2022-12-07T14:51:05;7.30;99.90
24638;DHT22;12773;50.162;8.548;2022-12-07T14:53:55;7.30;99.90
24638;DHT22;12773;50.162;8.548;2022-12-07T14:56:43;7.20;99.90
24638;DHT22;12773;50.162;8.548;2022-12-07T14:59:32;7.20;99.90
24638;DHT22;12773;50.162;8.548;2022-12-07T15:02:19;7.10;99.90
24638;DHT22;12773;50.162;8.548;2022-12-07T15:05:07;7.10;99.90
24638;DHT22;12773;50.162;8.548;2022-12-07T15:07:57;7.00;99.90
24638;DHT22;12773;50.162;8.548;2022-12-07T15:10:44;7.10;99.90
24638;DHT22;12773;50.162;8.548;2022-12-07T15:13:31;7.00;99.90
24638;DHT22;12773;50.162;8.548;2022-12-07T15:16:42;7.00;99.90
24638;DHT22;12773;50.162;8.548;2022-12-07T15:19:31;7.00;99.90
24638;DHT22;12773;50.162;8.548;2022-12-07T15:22:18;7.00;99.90
24638;DHT22;12773;50.162;8.548;2022-12-07T15:25:12;7.00;99.90
24638;DHT22;12773;50.162;8.548;2022-12-07T15:27:59;7.00;99.90
24638;DHT22;12773;50.162;8.548;2022-12-07T15:30:46;7.00;99.90
24638;DHT22;12773;50.162;8.548;2022-12-07T15:33:34;6.90;99.90
24638;DHT22;12773;50.162;8.548;2022-12-07T15:36:27;6.90;99.90
24638;DHT22;12773;50.162;8.548;2022-12-07T15:39:18;7.00;99.90
24638;DHT22;12773;50.162;8.548;2022-12-07T15:42:05;7.10;99.90
24638;DHT22;12773;50.162;8.548;2022-12-07T15:44:56;7.20;99.90
24638;DHT22;12773;50.162;8.548;2022-12-07T15:47:52;7.30;99.90
24638;DHT22;12773;50.162;8.548;2022-12-07T15:50:43;7.30;99.90
24638;DHT22;12773;50.162;8.548;2022-12-07T15:53:30;7.30;99.90
24638;DHT22;12773;50.162;8.548;2022-12-07T15:56:19;7.30;99.90
24638;DHT22;12773;50.162;8.548;2022-12-07T15:59:07;7.30;99.90
24638;DHT22;12773;50.162;8.548;2022-12-07T16:01:55;7.20;99.90
24638;DHT22;12773;50.162;8.548;2022-12-07T16:04:42;7.10;99.90
24638;DHT22;12773;50.162;8.548;2022-12-07T16:07:29;6.90;99.90
24638;DHT22;12773;50.162;8.548;2022-12-07T16:10:16;7.10;99.90
24638;DHT22;12773;50.162;8.548;2022-12-07T16:13:04;7.20;99.90
24638;DHT22;12773;50.162;8.548;2022-12-07T16:15:54;7.20;99.90
24638;DHT22;12773;50.162;8.548;2022-12-07T16:18:43;7.30;99.90
24638;DHT22;12773;50.162;8.548;2022-12-07T16:21:31;7.40;99.90
24638;DHT22;12773;50.162;8.548;2022-12-07T16:24:19;7.30;99.90
24638;DHT22;12773;50.162;8.548;2022-12-07T16:27:08;7.40;99.90
24638;DHT22;12773;50.162;8.548;2022-12-07T16:29:55;7.40;99.90
24638;DHT22;12773;50.162;8.548;2022-12-07T16:32:42;7.40;99.90
24638;DHT22;12773;50.162;8.548;2022-12-07T16:35:30;7.30;99.90
24638;DHT22;12773;50.162;8.548;2022-12-07T16:38:17;7.20;99.90
24638;DHT22;12773;50.162;8.548;2022-12-07T16:41:06;7.30;99.90
24638;DHT22;12773;50.162;8.548;2022-12-07T16:43:54;7.10;99.90
24638;DHT22;12773;50.162;8.548;2022-12-07T16:46:42;6.80;99.90
24638;DHT22;12773;50.162;8.548;2022-12-07T16:49:29;6.70;99.90
24638;DHT22;12773;50.162;8.548;2022-12-07T16:52:17;6.80;99.90
24638;DHT22;12773;50.162;8.548;2022-12-07T16:55:07;6.80;99.90
24638;DHT22;12773;50.162;8.548;2022-12-07T16:57:54;6.80;99.90
24638;DHT22;12773;50.162;8.548;2022-12-07T17:00:43;6.60;99.90
24638;DHT22;12773;50.162;8.548;2022-12-07T17:03:30;6.50;99.90
24638;DHT22;12773;50.162;8.548;2022-12-07T17:06:20;6.40;99.90
24638;DHT22;12773;50.162;8.548;2022-12-07T17:09:08;6.30;99.90
24638;DHT22;12773;50.162;8.548;2022-12-07T17:11:59;6.30;99.90
24638;DHT22;12773;50.162;8.548;2022-12-07T17:14:47;6.20;99.90
24638;DHT22;12773;50.162;8.548;2022-12-07T17:17:57;6.20;99.90
24638;DHT22;12773;50.162;8.548;2022-12-07T17:20:45;6.20;99.90
24638;DHT22;12773;50.162;8.548;2022-12-07T17:23:32;6.20;99.90
24638;DHT22;12773;50.162;8.548;2022-12-07T17:26:22;6.10;99.90
24638;DHT22;12773;50.162;8.548;2022-12-07T17:29:12;6.10;99.90
24638;DHT22;12773;50.162;8.548;2022-12-07T17:32:00;6.10;99.90
24638;DHT22;12773;50.162;8.548;2022-12-07T17:34:48;6.20;99.90
24638;DHT22;12773;50.162;8.548;2022-12-07T17:37:36;6.20;99.90
24638;DHT22;12773;50.162;8.548;2022-12-07T17:40:25;6.20;99.90
24638;DHT22;12773;50.162;8.548;2022-12-07T17:43:15;6.30;99.90
24638;DHT22;12773;50.162;8.548;2022-12-07T17:46:07;6.40;99.90
24638;DHT22;12773;50.162;8.548;2022-12-07T17:48:56;6.40;99.90
24638;DHT22;12773;50.162;8.548;2022-12-07T17:51:43;6.50;99.90
24638;DHT22;12773;50.162;8.548;2022-12-07T17:54:48;6.40;99.90
24638;DHT22;12773;50.162;8.548;2022-12-07T17:57:36;6.30;99.90
24638;DHT22;12773;50.162;8.548;2022-12-07T18:00:23;6.30;99.90
24638;DHT22;12773;50.162;8.548;2022-12-07T18:03:11;6.20;99.90
24638;DHT22;12773;50.162;8.548;2022-12-07T18:05:59;6.10;99.90
24638;DHT22;12773;50.162;8.548;2022-12-07T18:08:47;6.10;99.90
24638;DHT22;12773;50.162;8.548;2022-12-07T18:11:35;6.00;99.90
24638;DHT22;12773;50.162;8.548;2022-12-07T18:14:22;6.10;99.90
24638;DHT22;12773;50.162;8.548;2022-12-07T18:17:10;6.30;99.90
24638;DHT22;12773;50.162;8.548;2022-12-07T18:19:57;6.40;99.90
24638;DHT22;12773;50.162;8.548;2022-12-07T18:22:45;6.50;99.90
24638;DHT22;12773;50.162;8.548;2022-12-07T18:25:32;6.50;99.90
24638;DHT22;12773;50.162;8.548;2022-12-07T18:28:20;6.60;99.90
24638;DHT22;12773;50.162;8.548;2022-12-07T18:31:09;6.70;99.90
24638;DHT22;12773;50.162;8.548;2022-12-07T18:34:07;6.60;99.90
24638;DHT22;12773;50.162;8.548;2022-12-07T18:36:56;6.80;99.90
24638;DHT22;12773;50.162;8.548;2022-12-07T18:39:44;6.80;99.90
24638;DHT22;12773;50.162;8.548;2022-12-07T18:42:31;6.90;99.90
24638;DHT22;12773;50.162;8.548;2022-12-07T18:45:19;6.90;99.90
24638;DHT22;12773;50.162;8.548;2022-12-07T18:48:09;7.00;99.90
24638;DHT22;12773;50.162;8.548;2022-12-07T18:51:09;7.00;99.90
24638;DHT22;12773;50.162;8.548;2022-12-07T18:53:54;7.00;99.90
24638;DHT22;12773;50.162;8.548;2022-12-07T18:56:41;6.80;99.90
24638;DHT22;12773;50.162;8.548;2022-12-07T18:59:28;6.80;99.90
24638;DHT22;12773;50.162;8.548;2022-12-07T19:02:35;6.80;99.90
24638;DHT22;12773;50.162;8.548;2022-12-07T19:05:23;6.90;99.90
24638;DHT22;12773;50.162;8.548;2022-12-07T19:08:10;6.90;99.90
24638;DHT22;12773;50.162;8.548;2022-12-07T19:10:58;6.90;99.90
24638;DHT22;12773;50.162;8.548;2022-12-07T19:13:48;6.90;99.90
24638;DHT22;12773;50.162;8.548;2022-12-07T19:16:36;7.00;99.90
24638;DHT22;12773;50.162;8.548;2022-12-07T19:19:29;6.90;99.90
24638;DHT22;12773;50.162;8.548;2022-12-07T19:22:19;7.00;99.90
24638;DHT22;12773;50.162;8.548;2022-12-07T19:25:09;7.00;99.90